sensor_id;sensor_type;location;lat;lon;timestamp;P1;durP1;ratioP1;P2;durP2;ratioP2
21326;SDS011;10822;51.532;6.770;2023-05-18T00:01:01;9.55;;;2.17;;
21326;SDS011;10822;51.532;6.770;2023-05-18T00:03:28;5.63;;;1.63;;
21326;SDS011;10822;51.532;6.770;2023-05-18T00:05:57;7.68;;;2.03;;
21326;SDS011;10822;51.532;6.770;2023-05-18T00:08:28;7.20;;;1.65;;
21326;SDS011;10822;51.532;6.770;2023-05-18T00:10:55;5.63;;;2.05;;
21326;SDS011;10822;51.532;6.770;2023-05-18T00:13:21;6.63;;;2.15;;
21326;SDS011;10822;51.532;6.770;2023-05-18T00:15:49;6.45;;;2.25;;
21326;SDS011;10822;51.532;6.770;2023-05-18T00:18:15;2.72;;;1.60;;
21326;SDS011;10822;51.532;6.770;2023-05-18T00:20:41;5.60;;;2.25;;
21326;SDS011;10822;51.532;6.770;2023-05-18T00:23:07;4.88;;;1.88;;
21326;SDS011;10822;51.532;6.770;2023-05-18T00:25:40;7.30;;;1.90;;
21326;SDS011;10822;51.532;6.770;2023-05-18T00:28:06;5.07;;;1.70;;
21326;SDS011;10822;51.532;6.770;2023-05-18T00:30:34;5.30;;;1.83;;
21326;SDS011;10822;51.532;6.770;2023-05-18T00:35:31;5.38;;;2.67;;
21326;SDS011;10822;51.532;6.770;2023-05-18T00:37:57;6.10;;;2.63;;
21326;SDS011;10822;51.532;6.770;2023-05-18T00:40:23;8.00;;;3.90;;
21326;SDS011;10822;51.532;6.770;2023-05-18T00:42:50;6.18;;;2.50;;
21326;SDS011;10822;51.532;6.770;2023-05-18T00:45:17;6.90;;;2.35;;
21326;SDS011;10822;51.532;6.770;2023-05-18T00:47:43;6.93;;;2.95;;
21326;SDS011;10822;51.532;6.770;2023-05-18T00:50:09;10.70;;;2.28;;
21326;SDS011;10822;51.532;6.770;2023-05-18T00:52:36;6.00;;;2.13;;
21326;SDS011;10822;51.532;6.770;2023-05-18T00:55:03;6.00;;;1.80;;
21326;SDS011;10822;51.532;6.770;2023-05-18T00:57:29;6.18;;;2.55;;
21326;SDS011;10822;51.532;6.770;2023-05-18T00:59:56;5.15;;;1.83;;
21326;SDS011;10822;51.532;6.770;2023-05-18T01:02:22;7.63;;;2.25;;
21326;SDS011;10822;51.532;6.770;2023-05-18T01:04:48;3.78;;;1.70;;
21326;SDS011;10822;51.532;6.770;2023-05-18T01:07:16;5.95;;;1.80;;
21326;SDS011;10822;51.532;6.770;2023-05-18T01:09:47;8.23;;;2.10;;
21326;SDS011;10822;51.532;6.770;2023-05-18T01:14:48;8.48;;;2.05;;
21326;SDS011;10822;51.532;6.770;2023-05-18T01:17:22;5.28;;;1.85;;
21326;SDS011;10822;51.532;6.770;2023-05-18T01:24:47;6.32;;;2.20;;
21326;SDS011;10822;51.532;6.770;2023-05-18T01:27:15;7.72;;;2.00;;
21326;SDS011;10822;51.532;6.770;2023-05-18T01:29:42;7.10;;;2.08;;
21326;SDS011;10822;51.532;6.770;2023-05-18T01:32:16;4.78;;;2.03;;
21326;SDS011;10822;51.532;6.770;2023-05-18T01:34:43;6.43;;;1.83;;
21326;SDS011;10822;51.532;6.770;2023-05-18T01:37:09;7.07;;;2.20;;
21326;SDS011;10822;51.532;6.770;2023-05-18T01:39:35;5.32;;;1.90;;
21326;SDS011;10822;51.532;6.770;2023-05-18T01:42:03;6.07;;;2.00;;
21326;SDS011;10822;51.532;6.770;2023-05-18T01:44:42;4.78;;;1.80;;
21326;SDS011;10822;51.532;6.770;2023-05-18T01:47:14;5.25;;;2.08;;
21326;SDS011;10822;51.532;6.770;2023-05-18T01:52:08;6.78;;;2.17;;
21326;SDS011;10822;51.532;6.770;2023-05-18T01:54:35;4.50;;;2.13;;
21326;SDS011;10822;51.532;6.770;2023-05-18T01:57:02;8.52;;;2.38;;
21326;SDS011;10822;51.532;6.770;2023-05-18T01:59:28;5.85;;;2.38;;
21326;SDS011;10822;51.532;6.770;2023-05-18T02:01:59;5.80;;;2.45;;
21326;SDS011;10822;51.532;6.770;2023-05-18T02:04:26;6.20;;;2.28;;
21326;SDS011;10822;51.532;6.770;2023-05-18T02:06:52;7.13;;;2.53;;
21326;SDS011;10822;51.532;6.770;2023-05-18T02:09:18;4.40;;;2.10;;
21326;SDS011;10822;51.532;6.770;2023-05-18T02:11:45;5.47;;;2.25;;
21326;SDS011;10822;51.532;6.770;2023-05-18T02:14:11;6.93;;;2.00;;
21326;SDS011;10822;51.532;6.770;2023-05-18T02:16:37;4.43;;;2.10;;
21326;SDS011;10822;51.532;6.770;2023-05-18T02:19:03;8.20;;;2.40;;
21326;SDS011;10822;51.532;6.770;2023-05-18T02:21:29;5.72;;;2.10;;
21326;SDS011;10822;51.532;6.770;2023-05-18T02:23:56;7.38;;;2.17;;
21326;SDS011;10822;51.532;6.770;2023-05-18T02:26:22;7.00;;;2.22;;
21326;SDS011;10822;51.532;6.770;2023-05-18T02:28:48;6.15;;;2.17;;
21326;SDS011;10822;51.532;6.770;2023-05-18T02:31:13;7.45;;;2.40;;
21326;SDS011;10822;51.532;6.770;2023-05-18T02:33:39;4.47;;;2.00;;
21326;SDS011;10822;51.532;6.770;2023-05-18T02:36:06;7.18;;;2.20;;
21326;SDS011;10822;51.532;6.770;2023-05-18T02:38:34;8.82;;;2.60;;
21326;SDS011;10822;51.532;6.770;2023-05-18T02:41:00;5.18;;;2.30;;
21326;SDS011;10822;51.532;6.770;2023-05-18T02:43:26;7.25;;;2.40;;
21326;SDS011;10822;51.532;6.770;2023-05-18T02:45:52;6.57;;;2.85;;
21326;SDS011;10822;51.532;6.770;2023-05-18T02:48:18;7.22;;;2.10;;
21326;SDS011;10822;51.532;6.770;2023-05-18T02:50:46;5.63;;;2.17;;
21326;SDS011;10822;51.532;6.770;2023-05-18T02:53:12;6.95;;;2.30;;
21326;SDS011;10822;51.532;6.770;2023-05-18T02:55:38;4.47;;;1.98;;
21326;SDS011;10822;51.532;6.770;2023-05-18T02:58:06;5.95;;;1.88;;
21326;SDS011;10822;51.532;6.770;2023-05-18T03:00:32;6.38;;;2.40;;
21326;SDS011;10822;51.532;6.770;2023-05-18T03:02:58;5.82;;;2.35;;
21326;SDS011;10822;51.532;6.770;2023-05-18T03:05:25;7.20;;;2.60;;
21326;SDS011;10822;51.532;6.770;2023-05-18T03:07:51;7.28;;;2.05;;
21326;SDS011;10822;51.532;6.770;2023-05-18T03:10:18;5.47;;;2.15;;
21326;SDS011;10822;51.532;6.770;2023-05-18T03:12:44;6.90;;;2.15;;
21326;SDS011;10822;51.532;6.770;2023-05-18T03:15:11;6.50;;;2.50;;
21326;SDS011;10822;51.532;6.770;2023-05-18T03:17:38;4.63;;;1.88;;
21326;SDS011;10822;51.532;6.770;2023-05-18T03:20:05;5.72;;;2.17;;
21326;SDS011;10822;51.532;6.770;2023-05-18T03:22:31;7.10;;;2.40;;
21326;SDS011;10822;51.532;6.770;2023-05-18T03:24:57;5.25;;;2.30;;
21326;SDS011;10822;51.532;6.770;2023-05-18T03:27:26;6.03;;;2.35;;
21326;SDS011;10822;51.532;6.770;2023-05-18T03:29:52;3.95;;;2.05;;
21326;SDS011;10822;51.532;6.770;2023-05-18T03:32:18;5.22;;;2.20;;
21326;SDS011;10822;51.532;6.770;2023-05-18T03:34:44;7.65;;;2.85;;
21326;SDS011;10822;51.532;6.770;2023-05-18T03:37:11;7.95;;;2.35;;
21326;SDS011;10822;51.532;6.770;2023-05-18T03:39:38;8.05;;;2.55;;
21326;SDS011;10822;51.532;6.770;2023-05-18T03:42:04;5.72;;;2.50;;
21326;SDS011;10822;51.532;6.770;2023-05-18T03:44:30;3.63;;;2.20;;
21326;SDS011;10822;51.532;6.770;2023-05-18T03:46:56;10.95;;;3.67;;
21326;SDS011;10822;51.532;6.770;2023-05-18T03:49:22;8.57;;;3.17;;
21326;SDS011;10822;51.532;6.770;2023-05-18T03:51:48;6.15;;;2.63;;
21326;SDS011;10822;51.532;6.770;2023-05-18T03:54:14;6.10;;;2.60;;
21326;SDS011;10822;51.532;6.770;2023-05-18T03:56:40;5.20;;;2.40;;
21326;SDS011;10822;51.532;6.770;2023-05-18T03:59:06;6.90;;;2.63;;
21326;SDS011;10822;51.532;6.770;2023-05-18T04:01:33;9.93;;;3.00;;
21326;SDS011;10822;51.532;6.770;2023-05-18T04:03:59;8.20;;;3.50;;
21326;SDS011;10822;51.532;6.770;2023-05-18T04:06:25;5.68;;;2.22;;
21326;SDS011;10822;51.532;6.770;2023-05-18T04:08:51;7.47;;;2.83;;
21326;SDS011;10822;51.532;6.770;2023-05-18T04:11:18;9.25;;;2.55;;
21326;SDS011;10822;51.532;6.770;2023-05-18T04:13:45;7.45;;;2.33;;
21326;SDS011;10822;51.532;6.770;2023-05-18T04:16:11;4.53;;;2.40;;
21326;SDS011;10822;51.532;6.770;2023-05-18T04:18:39;9.68;;;2.28;;
21326;SDS011;10822;51.532;6.770;2023-05-18T04:21:05;9.50;;;3.53;;
21326;SDS011;10822;51.532;6.770;2023-05-18T04:23:31;9.13;;;3.13;;
21326;SDS011;10822;51.532;6.770;2023-05-18T04:26:02;6.53;;;3.03;;
21326;SDS011;10822;51.532;6.770;2023-05-18T04:28:28;8.27;;;3.50;;
21326;SDS011;10822;51.532;6.770;2023-05-18T04:30:55;8.60;;;3.35;;
21326;SDS011;10822;51.532;6.770;2023-05-18T04:33:21;6.63;;;3.17;;
21326;SDS011;10822;51.532;6.770;2023-05-18T04:35:47;7.72;;;2.50;;
21326;SDS011;10822;51.532;6.770;2023-05-18T04:38:13;9.75;;;3.08;;
21326;SDS011;10822;51.532;6.770;2023-05-18T04:40:40;7.50;;;2.83;;
21326;SDS011;10822;51.532;6.770;2023-05-18T04:43:07;8.18;;;2.85;;
21326;SDS011;10822;51.532;6.770;2023-05-18T04:45:34;7.00;;;2.95;;
21326;SDS011;10822;51.532;6.770;2023-05-18T04:47:59;7.28;;;2.78;;
21326;SDS011;10822;51.532;6.770;2023-05-18T04:50:25;8.82;;;3.55;;
21326;SDS011;10822;51.532;6.770;2023-05-18T04:52:52;8.93;;;2.97;;
21326;SDS011;10822;51.532;6.770;2023-05-18T04:55:21;5.20;;;3.00;;
21326;SDS011;10822;51.532;6.770;2023-05-18T04:57:51;7.72;;;3.08;;
21326;SDS011;10822;51.532;6.770;2023-05-18T05:00:20;9.02;;;3.42;;
21326;SDS011;10822;51.532;6.770;2023-05-18T05:02:46;9.45;;;3.22;;
21326;SDS011;10822;51.532;6.770;2023-05-18T05:05:12;11.25;;;3.25;;
21326;SDS011;10822;51.532;6.770;2023-05-18T05:07:38;9.98;;;3.17;;
21326;SDS011;10822;51.532;6.770;2023-05-18T05:10:04;6.95;;;2.88;;
21326;SDS011;10822;51.532;6.770;2023-05-18T05:12:30;6.15;;;2.72;;
21326;SDS011;10822;51.532;6.770;2023-05-18T05:14:56;6.25;;;3.13;;
21326;SDS011;10822;51.532;6.770;2023-05-18T05:17:23;7.25;;;3.00;;
21326;SDS011;10822;51.532;6.770;2023-05-18T05:19:49;6.10;;;3.10;;
21326;SDS011;10822;51.532;6.770;2023-05-18T05:22:15;8.05;;;3.08;;
21326;SDS011;10822;51.532;6.770;2023-05-18T05:24:43;7.97;;;3.03;;
21326;SDS011;10822;51.532;6.770;2023-05-18T05:27:09;9.25;;;2.97;;
21326;SDS011;10822;51.532;6.770;2023-05-18T05:29:35;9.88;;;3.08;;
21326;SDS011;10822;51.532;6.770;2023-05-18T05:32:01;6.32;;;3.00;;
21326;SDS011;10822;51.532;6.770;2023-05-18T05:34:27;5.80;;;3.28;;
21326;SDS011;10822;51.532;6.770;2023-05-18T05:36:53;6.95;;;3.08;;
21326;SDS011;10822;51.532;6.770;2023-05-18T05:39:19;7.82;;;3.25;;
21326;SDS011;10822;51.532;6.770;2023-05-18T05:41:45;7.85;;;3.20;;
21326;SDS011;10822;51.532;6.770;2023-05-18T05:44:11;7.53;;;3.15;;
21326;SDS011;10822;51.532;6.770;2023-05-18T05:46:37;6.90;;;3.05;;
21326;SDS011;10822;51.532;6.770;2023-05-18T05:49:03;7.93;;;3.15;;
21326;SDS011;10822;51.532;6.770;2023-05-18T05:51:29;5.32;;;2.88;;
21326;SDS011;10822;51.532;6.770;2023-05-18T05:53:55;6.20;;;3.05;;
21326;SDS011;10822;51.532;6.770;2023-05-18T05:56:21;7.15;;;2.70;;
21326;SDS011;10822;51.532;6.770;2023-05-18T05:58:47;6.10;;;2.53;;
21326;SDS011;10822;51.532;6.770;2023-05-18T06:01:13;7.38;;;2.40;;
21326;SDS011;10822;51.532;6.770;2023-05-18T06:03:39;6.05;;;2.35;;
21326;SDS011;10822;51.532;6.770;2023-05-18T06:06:05;5.90;;;2.40;;
21326;SDS011;10822;51.532;6.770;2023-05-18T06:08:31;6.57;;;3.05;;
21326;SDS011;10822;51.532;6.770;2023-05-18T06:10:57;8.77;;;2.75;;
21326;SDS011;10822;51.532;6.770;2023-05-18T06:13:23;7.43;;;2.67;;
21326;SDS011;10822;51.532;6.770;2023-05-18T06:15:49;9.00;;;2.90;;
21326;SDS011;10822;51.532;6.770;2023-05-18T06:18:15;6.60;;;2.05;;
21326;SDS011;10822;51.532;6.770;2023-05-18T06:20:41;8.55;;;2.60;;
21326;SDS011;10822;51.532;6.770;2023-05-18T06:23:07;5.72;;;2.13;;
21326;SDS011;10822;51.532;6.770;2023-05-18T06:25:33;5.75;;;2.42;;
21326;SDS011;10822;51.532;6.770;2023-05-18T06:28:00;6.57;;;2.03;;
21326;SDS011;10822;51.532;6.770;2023-05-18T06:30:26;5.13;;;2.20;;
21326;SDS011;10822;51.532;6.770;2023-05-18T06:32:52;5.53;;;1.90;;
21326;SDS011;10822;51.532;6.770;2023-05-18T06:35:18;7.88;;;2.42;;
21326;SDS011;10822;51.532;6.770;2023-05-18T06:37:44;8.30;;;2.85;;
21326;SDS011;10822;51.532;6.770;2023-05-18T06:40:10;7.28;;;2.60;;
21326;SDS011;10822;51.532;6.770;2023-05-18T06:42:36;6.90;;;2.30;;
21326;SDS011;10822;51.532;6.770;2023-05-18T06:45:02;7.53;;;2.20;;
21326;SDS011;10822;51.532;6.770;2023-05-18T06:47:28;8.85;;;2.28;;
21326;SDS011;10822;51.532;6.770;2023-05-18T06:49:54;5.72;;;2.50;;
21326;SDS011;10822;51.532;6.770;2023-05-18T06:52:21;7.63;;;2.53;;
21326;SDS011;10822;51.532;6.770;2023-05-18T06:54:47;9.02;;;2.42;;
21326;SDS011;10822;51.532;6.770;2023-05-18T06:57:13;6.57;;;2.10;;
21326;SDS011;10822;51.532;6.770;2023-05-18T06:59:39;7.22;;;2.05;;
21326;SDS011;10822;51.532;6.770;2023-05-18T07:02:05;8.82;;;2.40;;
21326;SDS011;10822;51.532;6.770;2023-05-18T07:04:31;6.72;;;2.33;;
21326;SDS011;10822;51.532;6.770;2023-05-18T07:06:57;4.28;;;2.13;;
21326;SDS011;10822;51.532;6.770;2023-05-18T07:09:24;6.35;;;2.45;;
21326;SDS011;10822;51.532;6.770;2023-05-18T07:11:50;9.00;;;2.17;;
21326;SDS011;10822;51.532;6.770;2023-05-18T07:14:16;8.25;;;2.05;;
21326;SDS011;10822;51.532;6.770;2023-05-18T07:16:42;7.63;;;2.10;;
21326;SDS011;10822;51.532;6.770;2023-05-18T07:19:11;7.25;;;2.03;;
21326;SDS011;10822;51.532;6.770;2023-05-18T07:21:38;6.28;;;1.90;;
21326;SDS011;10822;51.532;6.770;2023-05-18T07:24:04;4.38;;;1.90;;
21326;SDS011;10822;51.532;6.770;2023-05-18T07:26:30;6.05;;;1.80;;
21326;SDS011;10822;51.532;6.770;2023-05-18T07:28:56;7.50;;;2.00;;
21326;SDS011;10822;51.532;6.770;2023-05-18T07:31:22;7.10;;;2.25;;
21326;SDS011;10822;51.532;6.770;2023-05-18T07:33:48;8.13;;;2.35;;
21326;SDS011;10822;51.532;6.770;2023-05-18T07:36:14;5.82;;;1.90;;
21326;SDS011;10822;51.532;6.770;2023-05-18T07:38:40;6.00;;;2.67;;
21326;SDS011;10822;51.532;6.770;2023-05-18T07:41:06;5.32;;;2.05;;
21326;SDS011;10822;51.532;6.770;2023-05-18T07:43:32;8.07;;;2.47;;
21326;SDS011;10822;51.532;6.770;2023-05-18T07:45:58;6.97;;;2.38;;
21326;SDS011;10822;51.532;6.770;2023-05-18T07:48:24;6.65;;;2.13;;
21326;SDS011;10822;51.532;6.770;2023-05-18T07:50:50;7.85;;;2.33;;
21326;SDS011;10822;51.532;6.770;2023-05-18T07:53:16;6.57;;;2.35;;
21326;SDS011;10822;51.532;6.770;2023-05-18T07:55:42;7.72;;;2.30;;
21326;SDS011;10822;51.532;6.770;2023-05-18T07:58:09;8.23;;;2.30;;
21326;SDS011;10822;51.532;6.770;2023-05-18T08:00:35;7.50;;;2.42;;
21326;SDS011;10822;51.532;6.770;2023-05-18T08:03:01;6.82;;;2.10;;
21326;SDS011;10822;51.532;6.770;2023-05-18T08:05:27;5.82;;;2.05;;
21326;SDS011;10822;51.532;6.770;2023-05-18T08:07:53;4.53;;;1.88;;
21326;SDS011;10822;51.532;6.770;2023-05-18T08:10:19;7.22;;;2.20;;
21326;SDS011;10822;51.532;6.770;2023-05-18T08:12:45;8.80;;;2.72;;
21326;SDS011;10822;51.532;6.770;2023-05-18T08:15:11;6.38;;;2.30;;
21326;SDS011;10822;51.532;6.770;2023-05-18T08:17:37;5.18;;;2.03;;
21326;SDS011;10822;51.532;6.770;2023-05-18T08:20:03;6.15;;;2.03;;
21326;SDS011;10822;51.532;6.770;2023-05-18T08:22:30;5.10;;;2.42;;
21326;SDS011;10822;51.532;6.770;2023-05-18T08:24:56;6.50;;;1.88;;
21326;SDS011;10822;51.532;6.770;2023-05-18T08:27:24;7.05;;;2.13;;
21326;SDS011;10822;51.532;6.770;2023-05-18T08:29:50;6.78;;;1.90;;
21326;SDS011;10822;51.532;6.770;2023-05-18T08:32:16;6.88;;;1.88;;
21326;SDS011;10822;51.532;6.770;2023-05-18T08:34:42;5.10;;;1.80;;
21326;SDS011;10822;51.532;6.770;2023-05-18T08:37:08;6.50;;;2.50;;
21326;SDS011;10822;51.532;6.770;2023-05-18T08:39:34;6.38;;;1.90;;
21326;SDS011;10822;51.532;6.770;2023-05-18T08:42:04;6.93;;;2.28;;
21326;SDS011;10822;51.532;6.770;2023-05-18T08:44:39;5.97;;;2.15;;
21326;SDS011;10822;51.532;6.770;2023-05-18T08:47:08;6.63;;;2.15;;
21326;SDS011;10822;51.532;6.770;2023-05-18T08:49:37;4.80;;;2.03;;
21326;SDS011;10822;51.532;6.770;2023-05-18T08:52:06;7.60;;;2.20;;
21326;SDS011;10822;51.532;6.770;2023-05-18T08:54:34;5.18;;;2.03;;
21326;SDS011;10822;51.532;6.770;2023-05-18T08:57:00;5.68;;;2.20;;
21326;SDS011;10822;51.532;6.770;2023-05-18T08:59:29;7.07;;;2.83;;
21326;SDS011;10822;51.532;6.770;2023-05-18T09:01:56;7.13;;;2.15;;
21326;SDS011;10822;51.532;6.770;2023-05-18T09:04:22;5.82;;;1.88;;
21326;SDS011;10822;51.532;6.770;2023-05-18T09:06:48;3.97;;;1.80;;
21326;SDS011;10822;51.532;6.770;2023-05-18T09:09:16;7.90;;;2.50;;
21326;SDS011;10822;51.532;6.770;2023-05-18T09:11:42;8.95;;;2.20;;
21326;SDS011;10822;51.532;6.770;2023-05-18T09:14:09;5.43;;;2.00;;
21326;SDS011;10822;51.532;6.770;2023-05-18T09:16:35;7.60;;;1.98;;
21326;SDS011;10822;51.532;6.770;2023-05-18T09:19:01;7.10;;;2.10;;
21326;SDS011;10822;51.532;6.770;2023-05-18T09:21:29;5.65;;;2.03;;
21326;SDS011;10822;51.532;6.770;2023-05-18T09:23:55;5.93;;;2.38;;
21326;SDS011;10822;51.532;6.770;2023-05-18T09:26:21;4.88;;;2.20;;
21326;SDS011;10822;51.532;6.770;2023-05-18T09:28:50;4.70;;;1.63;;
21326;SDS011;10822;51.532;6.770;2023-05-18T09:31:17;5.97;;;2.30;;
21326;SDS011;10822;51.532;6.770;2023-05-18T09:33:44;7.28;;;2.13;;
21326;SDS011;10822;51.532;6.770;2023-05-18T09:36:11;7.80;;;2.63;;
21326;SDS011;10822;51.532;6.770;2023-05-18T09:38:39;6.38;;;2.05;;
21326;SDS011;10822;51.532;6.770;2023-05-18T09:41:13;6.40;;;2.30;;
21326;SDS011;10822;51.532;6.770;2023-05-18T09:43:41;5.60;;;2.10;;
21326;SDS011;10822;51.532;6.770;2023-05-18T09:46:08;4.28;;;1.80;;
21326;SDS011;10822;51.532;6.770;2023-05-18T09:48:34;7.15;;;2.35;;
21326;SDS011;10822;51.532;6.770;2023-05-18T09:51:04;6.85;;;1.98;;
21326;SDS011;10822;51.532;6.770;2023-05-18T09:53:31;7.72;;;2.15;;
21326;SDS011;10822;51.532;6.770;2023-05-18T09:56:00;5.47;;;2.40;;
21326;SDS011;10822;51.532;6.770;2023-05-18T09:58:32;6.65;;;2.30;;
21326;SDS011;10822;51.532;6.770;2023-05-18T10:00:59;5.82;;;2.22;;
21326;SDS011;10822;51.532;6.770;2023-05-18T10:03:25;6.70;;;2.17;;
21326;SDS011;10822;51.532;6.770;2023-05-18T10:05:59;6.65;;;2.40;;
21326;SDS011;10822;51.532;6.770;2023-05-18T10:08:25;5.90;;;2.20;;
21326;SDS011;10822;51.532;6.770;2023-05-18T10:10:52;7.40;;;2.00;;
21326;SDS011;10822;51.532;6.770;2023-05-18T10:13:18;7.22;;;2.15;;
21326;SDS011;10822;51.532;6.770;2023-05-18T10:15:54;7.25;;;2.33;;
21326;SDS011;10822;51.532;6.770;2023-05-18T10:18:21;4.18;;;2.13;;
21326;SDS011;10822;51.532;6.770;2023-05-18T10:20:47;4.78;;;2.33;;
21326;SDS011;10822;51.532;6.770;2023-05-18T10:23:14;4.60;;;2.20;;
21326;SDS011;10822;51.532;6.770;2023-05-18T10:25:41;4.60;;;2.05;;
21326;SDS011;10822;51.532;6.770;2023-05-18T10:28:09;9.30;;;2.72;;
21326;SDS011;10822;51.532;6.770;2023-05-18T10:30:36;5.57;;;1.95;;
21326;SDS011;10822;51.532;6.770;2023-05-18T10:33:03;6.68;;;2.28;;
21326;SDS011;10822;51.532;6.770;2023-05-18T10:35:30;4.78;;;2.10;;
21326;SDS011;10822;51.532;6.770;2023-05-18T10:37:56;7.90;;;2.20;;
21326;SDS011;10822;51.532;6.770;2023-05-18T10:40:23;8.90;;;2.45;;
21326;SDS011;10822;51.532;6.770;2023-05-18T10:42:51;5.00;;;2.15;;
21326;SDS011;10822;51.532;6.770;2023-05-18T10:45:18;5.35;;;2.17;;
21326;SDS011;10822;51.532;6.770;2023-05-18T10:47:44;6.03;;;2.38;;
21326;SDS011;10822;51.532;6.770;2023-05-18T10:50:10;8.63;;;2.17;;
21326;SDS011;10822;51.532;6.770;2023-05-18T10:52:37;5.32;;;2.10;;
21326;SDS011;10822;51.532;6.770;2023-05-18T10:55:03;4.82;;;2.00;;
21326;SDS011;10822;51.532;6.770;2023-05-18T10:57:39;7.03;;;2.20;;
21326;SDS011;10822;51.532;6.770;2023-05-18T11:00:07;7.25;;;2.28;;
21326;SDS011;10822;51.532;6.770;2023-05-18T11:02:34;8.93;;;2.58;;
21326;SDS011;10822;51.532;6.770;2023-05-18T11:05:03;5.47;;;2.45;;
21326;SDS011;10822;51.532;6.770;2023-05-18T11:07:31;5.00;;;2.30;;
21326;SDS011;10822;51.532;6.770;2023-05-18T11:09:59;5.80;;;2.30;;
21326;SDS011;10822;51.532;6.770;2023-05-18T11:12:26;5.20;;;2.10;;
21326;SDS011;10822;51.532;6.770;2023-05-18T11:14:52;8.30;;;2.50;;
21326;SDS011;10822;51.532;6.770;2023-05-18T11:17:19;6.95;;;2.10;;
21326;SDS011;10822;51.532;6.770;2023-05-18T11:22:41;4.95;;;1.88;;
21326;SDS011;10822;51.532;6.770;2023-05-18T11:25:07;9.27;;;2.47;;
21326;SDS011;10822;51.532;6.770;2023-05-18T11:27:33;6.65;;;2.33;;
21326;SDS011;10822;51.532;6.770;2023-05-18T11:29:59;6.38;;;1.90;;
21326;SDS011;10822;51.532;6.770;2023-05-18T11:32:27;6.72;;;2.30;;
21326;SDS011;10822;51.532;6.770;2023-05-18T11:34:56;4.95;;;1.73;;
21326;SDS011;10822;51.532;6.770;2023-05-18T11:40:43;8.52;;;2.10;;
21326;SDS011;10822;51.532;6.770;2023-05-18T11:42:58;5.38;;;1.90;;
21326;SDS011;10822;51.532;6.770;2023-05-18T11:45:24;5.18;;;2.10;;
21326;SDS011;10822;51.532;6.770;2023-05-18T11:47:54;8.10;;;2.25;;
21326;SDS011;10822;51.532;6.770;2023-05-18T11:50:21;6.00;;;2.60;;
21326;SDS011;10822;51.532;6.770;2023-05-18T11:52:47;5.93;;;2.55;;
21326;SDS011;10822;51.532;6.770;2023-05-18T11:55:17;6.13;;;1.88;;
21326;SDS011;10822;51.532;6.770;2023-05-18T11:57:47;5.78;;;2.40;;
21326;SDS011;10822;51.532;6.770;2023-05-18T12:00:13;6.53;;;2.08;;
21326;SDS011;10822;51.532;6.770;2023-05-18T12:02:47;5.60;;;1.98;;
21326;SDS011;10822;51.532;6.770;2023-05-18T12:05:13;6.63;;;2.25;;
21326;SDS011;10822;51.532;6.770;2023-05-18T12:07:40;5.55;;;2.25;;
21326;SDS011;10822;51.532;6.770;2023-05-18T12:10:07;6.03;;;2.25;;
21326;SDS011;10822;51.532;6.770;2023-05-18T12:12:33;4.68;;;1.90;;
21326;SDS011;10822;51.532;6.770;2023-05-18T12:15:01;4.78;;;2.08;;
21326;SDS011;10822;51.532;6.770;2023-05-18T12:17:36;5.68;;;2.08;;
21326;SDS011;10822;51.532;6.770;2023-05-18T12:20:03;6.28;;;1.75;;
21326;SDS011;10822;51.532;6.770;2023-05-18T12:22:29;6.45;;;2.30;;
21326;SDS011;10822;51.532;6.770;2023-05-18T12:24:55;7.47;;;3.08;;
21326;SDS011;10822;51.532;6.770;2023-05-18T12:27:21;5.80;;;2.15;;
21326;SDS011;10822;51.532;6.770;2023-05-18T12:29:50;5.82;;;1.90;;
21326;SDS011;10822;51.532;6.770;2023-05-18T12:32:16;9.77;;;2.10;;
21326;SDS011;10822;51.532;6.770;2023-05-18T12:34:42;5.45;;;2.22;;
21326;SDS011;10822;51.532;6.770;2023-05-18T12:37:08;6.28;;;1.80;;
21326;SDS011;10822;51.532;6.770;2023-05-18T12:39:35;6.47;;;1.88;;
21326;SDS011;10822;51.532;6.770;2023-05-18T12:42:11;8.68;;;1.80;;
21326;SDS011;10822;51.532;6.770;2023-05-18T12:44:39;4.38;;;1.90;;
21326;SDS011;10822;51.532;6.770;2023-05-18T12:47:07;4.72;;;1.98;;
21326;SDS011;10822;51.532;6.770;2023-05-18T12:49:35;5.90;;;1.90;;
21326;SDS011;10822;51.532;6.770;2023-05-18T12:52:06;6.25;;;1.90;;
21326;SDS011;10822;51.532;6.770;2023-05-18T12:54:33;4.35;;;1.90;;
21326;SDS011;10822;51.532;6.770;2023-05-18T12:57:03;6.05;;;1.88;;
21326;SDS011;10822;51.532;6.770;2023-05-18T12:59:30;7.00;;;2.08;;
21326;SDS011;10822;51.532;6.770;2023-05-18T13:01:56;5.10;;;1.83;;
21326;SDS011;10822;51.532;6.770;2023-05-18T13:04:30;6.28;;;2.33;;
21326;SDS011;10822;51.532;6.770;2023-05-18T13:06:57;6.70;;;1.85;;
21326;SDS011;10822;51.532;6.770;2023-05-18T13:09:23;6.28;;;1.90;;
21326;SDS011;10822;51.532;6.770;2023-05-18T13:11:50;4.07;;;1.75;;
21326;SDS011;10822;51.532;6.770;2023-05-18T13:14:19;8.18;;;2.60;;
21326;SDS011;10822;51.532;6.770;2023-05-18T13:16:48;4.25;;;2.05;;
21326;SDS011;10822;51.532;6.770;2023-05-18T13:19:15;6.22;;;1.95;;
21326;SDS011;10822;51.532;6.770;2023-05-18T13:21:42;5.00;;;1.50;;
21326;SDS011;10822;51.532;6.770;2023-05-18T13:24:08;4.80;;;1.55;;
21326;SDS011;10822;51.532;6.770;2023-05-18T13:26:34;5.45;;;1.85;;
21326;SDS011;10822;51.532;6.770;2023-05-18T13:29:00;6.20;;;2.10;;
21326;SDS011;10822;51.532;6.770;2023-05-18T13:31:26;5.60;;;1.67;;
21326;SDS011;10822;51.532;6.770;2023-05-18T13:33:53;6.90;;;3.40;;
21326;SDS011;10822;51.532;6.770;2023-05-18T13:36:19;4.30;;;1.98;;
21326;SDS011;10822;51.532;6.770;2023-05-18T13:38:45;5.45;;;2.00;;
21326;SDS011;10822;51.532;6.770;2023-05-18T13:41:12;6.03;;;2.20;;
21326;SDS011;10822;51.532;6.770;2023-05-18T13:43:39;4.80;;;1.77;;
21326;SDS011;10822;51.532;6.770;2023-05-18T13:46:05;6.65;;;2.05;;
21326;SDS011;10822;51.532;6.770;2023-05-18T13:48:31;6.63;;;1.90;;
21326;SDS011;10822;51.532;6.770;2023-05-18T13:50:57;5.35;;;1.67;;
21326;SDS011;10822;51.532;6.770;2023-05-18T13:53:24;6.95;;;2.03;;
21326;SDS011;10822;51.532;6.770;2023-05-18T13:55:50;5.57;;;1.85;;
21326;SDS011;10822;51.532;6.770;2023-05-18T13:58:16;4.38;;;1.63;;
21326;SDS011;10822;51.532;6.770;2023-05-18T14:00:43;6.80;;;1.60;;
21326;SDS011;10822;51.532;6.770;2023-05-18T14:03:10;4.38;;;1.90;;
21326;SDS011;10822;51.532;6.770;2023-05-18T14:05:36;6.65;;;1.92;;
21326;SDS011;10822;51.532;6.770;2023-05-18T14:08:02;4.28;;;1.80;;
21326;SDS011;10822;51.532;6.770;2023-05-18T14:10:28;3.92;;;1.70;;
21326;SDS011;10822;51.532;6.770;2023-05-18T14:12:54;6.03;;;1.90;;
21326;SDS011;10822;51.532;6.770;2023-05-18T14:15:20;4.18;;;1.30;;
21326;SDS011;10822;51.532;6.770;2023-05-18T14:17:46;4.28;;;1.65;;
21326;SDS011;10822;51.532;6.770;2023-05-18T14:20:12;5.78;;;1.90;;
21326;SDS011;10822;51.532;6.770;2023-05-18T14:22:38;4.78;;;1.35;;
21326;SDS011;10822;51.532;6.770;2023-05-18T14:25:04;6.20;;;1.90;;
21326;SDS011;10822;51.532;6.770;2023-05-18T14:27:31;6.38;;;2.03;;
21326;SDS011;10822;51.532;6.770;2023-05-18T14:29:57;4.93;;;1.83;;
21326;SDS011;10822;51.532;6.770;2023-05-18T14:32:23;5.95;;;1.60;;
21326;SDS011;10822;51.532;6.770;2023-05-18T14:34:49;5.57;;;1.60;;
21326;SDS011;10822;51.532;6.770;2023-05-18T14:37:16;8.77;;;1.88;;
21326;SDS011;10822;51.532;6.770;2023-05-18T14:39:41;5.93;;;1.50;;
21326;SDS011;10822;51.532;6.770;2023-05-18T14:42:07;6.72;;;2.10;;
21326;SDS011;10822;51.532;6.770;2023-05-18T14:44:33;5.45;;;1.55;;
21326;SDS011;10822;51.532;6.770;2023-05-18T14:47:00;6.05;;;1.60;;
21326;SDS011;10822;51.532;6.770;2023-05-18T14:49:25;3.88;;;1.20;;
21326;SDS011;10822;51.532;6.770;2023-05-18T14:51:52;4.97;;;1.25;;
21326;SDS011;10822;51.532;6.770;2023-05-18T14:54:18;7.65;;;1.75;;
21326;SDS011;10822;51.532;6.770;2023-05-18T14:56:44;4.75;;;1.48;;
21326;SDS011;10822;51.532;6.770;2023-05-18T14:59:10;5.88;;;1.42;;
21326;SDS011;10822;51.532;6.770;2023-05-18T15:01:36;3.50;;;1.67;;
21326;SDS011;10822;51.532;6.770;2023-05-18T15:04:02;6.53;;;1.88;;